Terminal Aerodrome Forecast
Issued by NWS Albany, NY

Home | Current Version | Previous Version | Text Only | Print | Product List | Glossary On
Versions: 1 2 3 4 5 6 7 8 9 10 11 12 13 14 15 16 17 18
000
FTUS41 KALY 182354
TAFALB
TAF
KALB 182354Z 1900/1924 18008KT P6SM SCT015 BKN050
      TEMPO 1902/1904 4SM -SHRA BR SCT007 BKN015
     FM190400 22006KT P6SM SCT015 SCT050
      TEMPO 1904/1907 4SM BR
     FM190700 VRB03KT 4SM BR SCT008 BKN015
      TEMPO 1907/1911 2SM BR OVC008
     FM191230 25006KT P6SM SCT015 BKN035
     FM191800 26010G16KT P6SM BKN050
     FM192200 27007KT P6SM BKN050=

USA.gov is the U.S. government's official web portal to all federal, state and local government web resources and services.